createdAt,value
2018-09-29T00:02:00.019Z,99.90
2018-09-29T00:04:28.249Z,99.90
2018-09-29T00:06:56.532Z,99.90
2018-09-29T00:09:24.700Z,99.90
2018-09-29T00:11:52.961Z,99.90
2018-09-29T00:14:21.141Z,99.90
2018-09-29T00:16:49.360Z,99.90
2018-09-29T00:19:17.557Z,99.90
2018-09-29T00:21:45.734Z,99.90
2018-09-29T00:26:41.944Z,99.90
2018-09-29T00:29:10.116Z,99.90
2018-09-29T00:31:38.290Z,99.90
2018-09-29T00:34:06.492Z,99.90
2018-09-29T00:36:34.666Z,99.90
2018-09-29T00:39:02.891Z,99.90
2018-09-29T00:41:31.134Z,99.90
2018-09-29T00:43:59.326Z,99.90
2018-09-29T00:46:27.566Z,99.90
2018-09-29T00:48:55.817Z,99.90
2018-09-29T00:51:24.011Z,99.90
2018-09-29T00:53:52.212Z,99.90
2018-09-29T00:56:20.423Z,99.90
2018-09-29T00:58:48.696Z,99.90
2018-09-29T01:01:16.882Z,99.90
2018-09-29T01:03:45.068Z,99.90
2018-09-29T01:06:13.261Z,99.90
2018-09-29T01:08:41.458Z,99.90
2018-09-29T01:11:09.670Z,99.90
2018-09-29T01:13:37.882Z,99.90
2018-09-29T01:16:06.114Z,99.90
2018-09-29T01:18:34.342Z,99.90
2018-09-29T01:21:05.620Z,99.90
2018-09-29T01:23:33.827Z,99.90
2018-09-29T01:26:02.022Z,99.90
2018-09-29T01:28:30.298Z,99.90
2018-09-29T01:30:58.516Z,99.90
2018-09-29T01:33:26.701Z,99.90
2018-09-29T01:35:55.093Z,99.90
2018-09-29T01:38:23.309Z,99.90
2018-09-29T01:40:51.699Z,99.90
2018-09-29T01:43:19.904Z,99.90
2018-09-29T01:45:48.106Z,99.90
2018-09-29T01:48:16.286Z,99.90
2018-09-29T01:50:44.469Z,99.90
2018-09-29T01:53:12.675Z,99.90
2018-09-29T01:55:40.894Z,99.90
2018-09-29T01:58:09.102Z,99.90
2018-09-29T02:00:37.294Z,99.90
2018-09-29T02:03:11.673Z,99.90
2018-09-29T02:05:41.260Z,99.90
2018-09-29T02:08:09.458Z,99.90
2018-09-29T02:10:37.667Z,99.90
2018-09-29T02:13:05.860Z,99.90
2018-09-29T02:15:34.685Z,99.90
2018-09-29T02:18:02.891Z,99.90
2018-09-29T02:20:31.105Z,99.90
2018-09-29T02:22:59.304Z,99.90
2018-09-29T02:25:27.502Z,99.90
2018-09-29T02:27:55.725Z,99.90
2018-09-29T02:30:23.979Z,99.90
2018-09-29T02:32:52.310Z,99.90
2018-09-29T02:35:20.619Z,99.90
2018-09-29T02:37:48.871Z,99.90
2018-09-29T02:40:17.126Z,99.90
2018-09-29T02:42:45.359Z,99.90
2018-09-29T02:45:13.574Z,99.90
2018-09-29T02:47:41.789Z,99.90
2018-09-29T02:50:10.042Z,99.90
2018-09-29T02:52:38.329Z,99.90
2018-09-29T02:55:06.598Z,99.90
2018-09-29T02:57:34.816Z,99.90
2018-09-29T03:00:03.046Z,99.90
2018-09-29T03:02:31.268Z,99.90
2018-09-29T03:04:59.457Z,99.90
2018-09-29T03:07:27.656Z,99.90
2018-09-29T03:09:55.906Z,99.90
2018-09-29T03:12:24.119Z,99.90
2018-09-29T03:14:52.324Z,99.90
2018-09-29T03:17:20.532Z,99.90
2018-09-29T03:19:48.742Z,99.90
2018-09-29T03:22:17.020Z,99.90
2018-09-29T03:24:45.214Z,99.90
2018-09-29T03:27:13.386Z,99.90
2018-09-29T03:29:41.593Z,99.90
2018-09-29T03:32:09.826Z,99.90
2018-09-29T03:34:38.018Z,99.90
2018-09-29T03:37:06.359Z,99.90
2018-09-29T03:39:34.566Z,99.90
2018-09-29T03:42:02.762Z,99.90
2018-09-29T03:44:31.003Z,99.90
2018-09-29T03:46:59.280Z,99.90
2018-09-29T03:49:27.506Z,99.90
2018-09-29T03:51:55.701Z,99.90
2018-09-29T03:54:23.949Z,99.90
2018-09-29T03:56:52.156Z,99.90
2018-09-29T03:59:20.439Z,99.90
2018-09-29T04:01:48.656Z,99.90
2018-09-29T04:04:16.866Z,99.90
2018-09-29T04:06:45.123Z,99.90
2018-09-29T04:09:13.336Z,99.90
2018-09-29T04:11:41.585Z,99.90
2018-09-29T04:14:09.860Z,99.90
2018-09-29T04:16:38.112Z,99.90
2018-09-29T04:19:06.489Z,99.90
2018-09-29T04:21:44.013Z,99.90
2018-09-29T04:24:12.336Z,99.90
2018-09-29T04:26:40.517Z,99.90
2018-09-29T04:29:08.711Z,99.90
2018-09-29T04:31:36.993Z,99.90
2018-09-29T04:34:05.245Z,99.90
2018-09-29T04:36:33.423Z,99.90
2018-09-29T04:39:01.637Z,99.90
2018-09-29T04:41:29.845Z,99.90
2018-09-29T04:43:58.050Z,99.90
2018-09-29T04:46:26.247Z,99.90
2018-09-29T04:48:54.429Z,99.90
2018-09-29T04:51:22.593Z,99.90
2018-09-29T04:53:50.781Z,99.90
2018-09-29T04:56:18.963Z,99.90
2018-09-29T04:58:47.234Z,99.90
2018-09-29T05:01:15.425Z,99.90
2018-09-29T05:03:43.619Z,99.90
2018-09-29T05:06:11.826Z,99.90
2018-09-29T05:08:40.038Z,99.90
2018-09-29T05:11:08.218Z,99.90
2018-09-29T05:13:36.396Z,99.90
2018-09-29T05:16:04.811Z,99.90
2018-09-29T05:18:33.004Z,99.90
2018-09-29T05:21:01.225Z,99.90
2018-09-29T05:23:29.418Z,99.90
2018-09-29T05:25:57.642Z,99.90
2018-09-29T05:28:25.856Z,99.90
2018-09-29T05:30:54.083Z,99.90
2018-09-29T05:33:22.305Z,99.90
2018-09-29T05:35:50.539Z,99.90
2018-09-29T05:38:18.785Z,99.90
2018-09-29T05:40:47.019Z,99.90
2018-09-29T05:43:15.204Z,99.90
2018-09-29T05:45:43.414Z,99.90
2018-09-29T05:48:11.675Z,99.90
2018-09-29T05:50:39.836Z,99.90
2018-09-29T05:53:08.029Z,99.90
2018-09-29T05:55:36.217Z,99.90
2018-09-29T05:58:04.531Z,99.90
2018-09-29T06:00:32.916Z,99.90
2018-09-29T06:03:01.029Z,99.90
2018-09-29T06:05:29.396Z,99.90
2018-09-29T06:07:57.477Z,99.90
2018-09-29T06:10:25.713Z,99.90
2018-09-29T06:12:53.919Z,99.90
2018-09-29T06:15:22.149Z,99.90
2018-09-29T06:17:50.366Z,99.90
2018-09-29T06:20:18.569Z,99.90
2018-09-29T06:22:46.806Z,99.90
2018-09-29T06:25:15.053Z,99.90
2018-09-29T06:27:43.229Z,99.90
2018-09-29T06:30:11.417Z,99.90
2018-09-29T06:32:39.600Z,99.90
2018-09-29T06:35:07.858Z,99.90
2018-09-29T06:37:36.069Z,99.90
2018-09-29T06:40:04.298Z,99.90
2018-09-29T06:42:32.476Z,99.90
2018-09-29T06:45:00.781Z,99.90
2018-09-29T06:47:28.978Z,99.90
2018-09-29T06:49:57.195Z,99.90
2018-09-29T06:52:25.429Z,99.90
2018-09-29T06:54:53.604Z,99.90
2018-09-29T06:57:21.805Z,99.90
2018-09-29T06:59:50.017Z,99.90
2018-09-29T07:02:18.193Z,99.90
2018-09-29T07:04:46.384Z,99.90
2018-09-29T07:07:14.572Z,99.90
2018-09-29T07:09:42.736Z,99.90
2018-09-29T07:12:10.951Z,99.90
2018-09-29T07:14:39.161Z,99.90
2018-09-29T07:17:07.429Z,99.90
2018-09-29T07:19:36.241Z,99.90
2018-09-29T07:22:04.454Z,99.90
2018-09-29T07:24:32.661Z,99.90
2018-09-29T07:27:00.837Z,99.90
2018-09-29T07:29:29.008Z,99.90
2018-09-29T07:31:57.194Z,99.90
2018-09-29T07:34:25.658Z,99.90
2018-09-29T07:36:53.989Z,99.90
2018-09-29T07:39:22.190Z,99.90
2018-09-29T07:41:50.380Z,99.90
2018-09-29T07:44:18.560Z,99.90
2018-09-29T07:46:46.913Z,99.90
2018-09-29T07:49:15.210Z,99.90
2018-09-29T07:51:43.406Z,99.60
2018-09-29T07:54:11.624Z,98.00
2018-09-29T07:56:39.797Z,95.40
2018-09-29T07:59:09.160Z,91.30
2018-09-29T08:01:37.365Z,85.60
2018-09-29T08:04:05.553Z,77.00
2018-09-29T08:06:33.758Z,64.10
2018-09-29T08:11:29.859Z,54.60
2018-09-29T08:13:58.017Z,53.60
2018-09-29T08:16:26.200Z,53.00
2018-09-29T08:18:54.376Z,49.70
2018-09-29T08:21:22.553Z,53.70
2018-09-29T08:23:50.788Z,54.60
2018-09-29T08:26:19.069Z,53.60
2018-09-29T08:28:47.235Z,52.20
2018-09-29T08:31:15.432Z,53.80
2018-09-29T08:33:43.621Z,55.80
2018-09-29T08:36:11.797Z,57.00
2018-09-29T08:38:39.989Z,59.50
2018-09-29T08:41:08.220Z,63.40
2018-09-29T08:43:36.442Z,64.80
2018-09-29T08:46:04.614Z,68.60
2018-09-29T08:48:32.797Z,71.70
2018-09-29T08:51:00.980Z,74.60
2018-09-29T08:53:29.185Z,76.70
2018-09-29T08:55:57.335Z,70.20
2018-09-29T09:00:53.412Z,53.90
2018-09-29T09:03:21.640Z,49.90
2018-09-29T09:05:49.852Z,49.40
2018-09-29T09:08:18.026Z,45.80
2018-09-29T09:10:46.292Z,46.30
2018-09-29T09:13:14.541Z,44.50
2018-09-29T09:15:42.775Z,42.10
2018-09-29T09:18:10.960Z,41.10
2018-09-29T09:20:39.137Z,39.30
2018-09-29T09:23:07.350Z,39.60
2018-09-29T09:25:35.472Z,39.60
2018-09-29T09:28:03.633Z,38.00
2018-09-29T09:30:31.824Z,38.90
2018-09-29T09:33:00.002Z,40.70
2018-09-29T09:37:56.111Z,40.00
2018-09-29T09:40:24.299Z,42.00
2018-09-29T09:42:52.469Z,41.10
2018-09-29T09:45:20.633Z,40.60
2018-09-29T09:47:48.836Z,40.80
2018-09-29T09:50:17.005Z,40.80
2018-09-29T09:52:45.206Z,38.30
2018-09-29T09:55:13.552Z,38.10
2018-09-29T09:57:41.746Z,39.80
2018-09-29T10:00:09.970Z,40.70
2018-09-29T10:02:42.360Z,40.50
2018-09-29T10:05:10.545Z,39.50
2018-09-29T10:07:38.729Z,38.40
2018-09-29T10:10:06.936Z,40.10
2018-09-29T10:12:35.105Z,41.10
2018-09-29T10:15:03.345Z,41.20
2018-09-29T10:17:31.666Z,42.00
2018-09-29T10:19:59.785Z,42.60
2018-09-29T10:22:27.986Z,42.50
2018-09-29T10:24:56.165Z,42.00
2018-09-29T10:27:24.424Z,39.50
2018-09-29T10:29:52.593Z,40.60
2018-09-29T10:32:20.902Z,42.50
2018-09-29T10:34:49.069Z,43.90
2018-09-29T10:37:17.309Z,44.90
2018-09-29T10:39:45.508Z,44.10
2018-09-29T10:42:13.712Z,45.90
2018-09-29T10:44:41.932Z,44.80
2018-09-29T10:47:10.099Z,45.00
2018-09-29T10:49:38.281Z,44.80
2018-09-29T10:52:06.450Z,46.60
2018-09-29T10:54:34.680Z,47.20
2018-09-29T10:57:02.885Z,49.20
2018-09-29T10:59:31.058Z,50.20
2018-09-29T11:01:59.260Z,50.10
2018-09-29T11:04:27.441Z,50.80
2018-09-29T11:06:55.613Z,52.50
2018-09-29T11:09:23.828Z,53.10
2018-09-29T11:11:52.030Z,53.10
2018-09-29T11:14:20.251Z,54.70
2018-09-29T11:16:48.446Z,54.40
2018-09-29T11:19:16.637Z,55.80
2018-09-29T11:21:51.308Z,53.90
2018-09-29T11:24:19.473Z,53.30
2018-09-29T11:26:47.685Z,52.70
2018-09-29T11:29:15.871Z,53.80
2018-09-29T11:31:44.060Z,52.90
2018-09-29T11:34:12.244Z,54.70
2018-09-29T11:36:40.396Z,54.50
2018-09-29T11:39:10.115Z,53.60
2018-09-29T11:41:38.444Z,54.30
2018-09-29T11:44:06.666Z,54.00
2018-09-29T11:46:34.853Z,54.00
2018-09-29T11:49:03.088Z,54.20
2018-09-29T11:51:31.303Z,56.00
2018-09-29T11:53:59.883Z,57.20
2018-09-29T11:56:28.067Z,56.40
2018-09-29T11:58:56.273Z,55.70
2018-09-29T12:01:24.830Z,55.90
2018-09-29T12:03:52.998Z,55.30
2018-09-29T12:06:21.276Z,56.00
2018-09-29T12:08:49.605Z,55.10
2018-09-29T12:11:18.021Z,56.20
2018-09-29T12:13:46.262Z,55.50
2018-09-29T12:16:14.420Z,55.80
2018-09-29T12:18:42.604Z,55.70
2018-09-29T12:21:10.857Z,55.10
2018-09-29T12:23:38.988Z,54.90
2018-09-29T12:26:07.648Z,55.50
2018-09-29T12:28:36.388Z,57.20
2018-09-29T12:31:04.550Z,57.10
2018-09-29T12:33:32.752Z,56.40
2018-09-29T12:36:00.964Z,56.20
2018-09-29T12:38:29.184Z,54.50
2018-09-29T12:40:57.381Z,56.00
2018-09-29T12:46:00.808Z,55.50
2018-09-29T12:48:29.063Z,56.90
2018-09-29T12:50:57.266Z,56.00
2018-09-29T12:53:25.520Z,55.70
2018-09-29T12:55:53.738Z,57.00
2018-09-29T12:58:21.970Z,57.80
2018-09-29T13:00:50.204Z,57.50
2018-09-29T13:03:18.396Z,57.00
2018-09-29T13:05:46.622Z,57.00
2018-09-29T13:08:14.923Z,57.00
2018-09-29T13:10:43.132Z,56.30
2018-09-29T13:13:11.374Z,55.50
2018-09-29T13:15:39.617Z,56.00
2018-09-29T13:18:07.838Z,55.40
2018-09-29T13:20:36.047Z,55.90
2018-09-29T13:23:04.364Z,56.40
2018-09-29T13:25:32.573Z,56.70
2018-09-29T13:28:00.772Z,57.40
2018-09-29T13:30:29.025Z,56.10
2018-09-29T13:32:57.223Z,55.90
2018-09-29T13:35:25.460Z,56.00
2018-09-29T13:37:53.656Z,56.00
2018-09-29T13:40:21.868Z,56.10
2018-09-29T13:42:50.145Z,57.10
2018-09-29T13:45:18.385Z,56.30
2018-09-29T13:47:46.660Z,56.40
2018-09-29T13:50:14.917Z,57.10
2018-09-29T13:52:43.127Z,56.60
2018-09-29T13:55:11.341Z,55.60
2018-09-29T13:57:39.557Z,57.00
2018-09-29T14:00:07.768Z,55.40
2018-09-29T14:02:36.054Z,56.80
2018-09-29T14:05:04.333Z,55.90
2018-09-29T14:07:32.633Z,55.00
2018-09-29T14:10:00.829Z,56.00
2018-09-29T14:12:29.109Z,57.10
2018-09-29T14:14:57.313Z,57.40
2018-09-29T14:17:25.551Z,57.20
2018-09-29T14:19:53.807Z,57.00
2018-09-29T14:22:22.021Z,57.00
2018-09-29T14:24:50.208Z,56.60
2018-09-29T14:27:18.478Z,56.90
2018-09-29T14:29:46.692Z,55.80
2018-09-29T14:32:14.918Z,55.30
2018-09-29T14:34:43.152Z,55.80
2018-09-29T14:37:11.363Z,55.30
2018-09-29T14:39:39.627Z,55.50
2018-09-29T14:42:07.823Z,55.00
2018-09-29T14:44:36.231Z,56.30
2018-09-29T14:47:04.425Z,58.00
2018-09-29T14:49:32.707Z,58.00
2018-09-29T14:52:00.884Z,57.70
2018-09-29T14:54:29.081Z,57.20
2018-09-29T14:56:57.414Z,57.40
2018-09-29T14:59:25.616Z,56.90
2018-09-29T15:01:53.780Z,56.50
2018-09-29T15:04:22.002Z,57.10
2018-09-29T15:06:50.115Z,57.70
2018-09-29T15:09:18.301Z,57.30
2018-09-29T15:11:46.468Z,57.90
2018-09-29T15:14:14.657Z,58.00
2018-09-29T15:16:42.825Z,57.00
2018-09-29T15:19:11.001Z,57.20
2018-09-29T15:21:39.329Z,58.20
2018-09-29T15:24:07.531Z,57.40
2018-09-29T15:26:35.734Z,57.60
2018-09-29T15:29:03.945Z,58.50
2018-09-29T15:31:32.177Z,58.30
2018-09-29T15:34:00.401Z,58.50
2018-09-29T15:36:28.625Z,59.60
2018-09-29T15:41:34.920Z,58.10
2018-09-29T15:44:03.126Z,58.70
2018-09-29T15:46:31.313Z,58.60
2018-09-29T15:48:59.565Z,58.60
2018-09-29T15:51:27.786Z,58.40
2018-09-29T15:53:56.026Z,57.70
2018-09-29T15:56:24.279Z,57.80
2018-09-29T15:58:52.510Z,58.50
2018-09-29T16:01:20.727Z,58.90
2018-09-29T16:03:48.999Z,59.00
2018-09-29T16:06:17.196Z,58.40
2018-09-29T16:08:45.416Z,59.20
2018-09-29T16:11:13.590Z,59.90
2018-09-29T16:13:41.829Z,60.80
2018-09-29T16:16:10.016Z,61.20
2018-09-29T16:18:38.369Z,61.30
2018-09-29T16:21:06.604Z,61.90
2018-09-29T16:23:34.945Z,62.30
2018-09-29T16:26:03.305Z,62.90
2018-09-29T16:28:31.525Z,64.30
2018-09-29T16:31:01.234Z,64.20
2018-09-29T16:33:29.428Z,65.20
2018-09-29T16:35:57.781Z,65.00
2018-09-29T16:38:26.053Z,65.90
2018-09-29T16:40:54.209Z,66.70
2018-09-29T16:43:22.447Z,68.20
2018-09-29T16:45:50.790Z,68.90
2018-09-29T16:48:19.320Z,69.80
2018-09-29T16:50:47.636Z,69.60
2018-09-29T16:53:15.849Z,72.70
2018-09-29T16:55:44.467Z,73.10
2018-09-29T16:58:12.697Z,74.50
2018-09-29T17:00:40.957Z,76.60
2018-09-29T17:03:09.192Z,77.40
2018-09-29T17:05:37.425Z,77.30
2018-09-29T17:08:05.681Z,79.10
2018-09-29T17:10:33.898Z,80.60
2018-09-29T17:13:02.147Z,81.40
2018-09-29T17:15:30.361Z,81.40
2018-09-29T17:17:58.551Z,83.50
2018-09-29T17:20:26.803Z,83.50
2018-09-29T17:22:55.032Z,84.50
2018-09-29T17:25:23.229Z,85.70
2018-09-29T17:27:51.462Z,86.00
2018-09-29T17:30:19.762Z,87.30
2018-09-29T17:32:47.980Z,86.90
2018-09-29T17:35:16.225Z,89.70
2018-09-29T17:37:44.462Z,90.70
2018-09-29T17:40:12.684Z,90.70
2018-09-29T17:42:40.908Z,90.90
2018-09-29T17:45:09.193Z,90.90
2018-09-29T17:47:37.405Z,91.80
2018-09-29T17:50:06.469Z,92.70
2018-09-29T17:52:34.809Z,94.10
2018-09-29T17:55:03.041Z,94.90
2018-09-29T17:57:31.366Z,96.00
2018-09-29T17:59:59.605Z,97.30
2018-09-29T18:02:27.868Z,98.50
2018-09-29T18:04:56.143Z,98.90
2018-09-29T18:07:24.330Z,99.00
2018-09-29T18:09:52.641Z,99.90
2018-09-29T18:12:20.945Z,99.30
2018-09-29T18:14:49.194Z,98.50
2018-09-29T18:17:17.419Z,98.30
2018-09-29T18:19:45.654Z,98.70
2018-09-29T18:22:13.896Z,99.20
2018-09-29T18:24:42.120Z,99.90
2018-09-29T18:27:10.722Z,99.90
2018-09-29T18:29:38.963Z,99.90
2018-09-29T18:32:07.240Z,99.90
2018-09-29T18:34:35.467Z,99.90
2018-09-29T18:37:03.689Z,99.90
2018-09-29T18:39:31.963Z,99.90
2018-09-29T18:42:00.209Z,99.90
2018-09-29T18:44:28.464Z,99.90
2018-09-29T18:46:56.733Z,99.90
2018-09-29T18:49:25.001Z,99.90
2018-09-29T18:51:53.333Z,99.90
2018-09-29T18:54:21.551Z,99.90
2018-09-29T18:56:49.765Z,99.90
2018-09-29T18:59:18.013Z,99.90
2018-09-29T19:01:46.338Z,99.90
2018-09-29T19:04:14.616Z,99.90
2018-09-29T19:06:42.860Z,99.90
2018-09-29T19:09:12.622Z,99.90
2018-09-29T19:11:41.530Z,99.90
2018-09-29T19:14:09.819Z,99.90
2018-09-29T19:16:38.108Z,99.90
2018-09-29T19:19:06.678Z,99.90
2018-09-29T19:21:34.898Z,99.90
2018-09-29T19:24:03.841Z,99.90
2018-09-29T19:26:32.045Z,99.90
2018-09-29T19:29:00.298Z,99.90
2018-09-29T19:31:28.565Z,99.90
2018-09-29T19:33:56.820Z,99.90
2018-09-29T19:36:25.032Z,99.90
2018-09-29T19:38:53.295Z,99.90
2018-09-29T19:41:21.492Z,99.90
2018-09-29T19:43:49.755Z,99.90
2018-09-29T19:46:17.977Z,99.90
2018-09-29T19:48:46.221Z,99.90
2018-09-29T19:51:14.498Z,99.90
2018-09-29T19:53:42.677Z,99.90
2018-09-29T19:56:10.945Z,99.90
2018-09-29T19:58:39.320Z,99.90
2018-09-29T20:01:07.568Z,99.90
2018-09-29T20:03:35.905Z,99.90
2018-09-29T20:06:04.074Z,99.90
2018-09-29T20:08:32.302Z,99.90
2018-09-29T20:11:01.289Z,99.90
2018-09-29T20:13:29.564Z,99.90
2018-09-29T20:15:57.808Z,99.90
2018-09-29T20:18:26.033Z,99.90
2018-09-29T20:20:54.327Z,99.90
2018-09-29T20:23:22.582Z,99.90
2018-09-29T20:25:51.094Z,99.90
2018-09-29T20:28:19.424Z,99.90
2018-09-29T20:30:47.706Z,99.90
2018-09-29T20:33:15.934Z,99.90
2018-09-29T20:35:44.171Z,99.90
2018-09-29T20:38:12.445Z,99.90
2018-09-29T20:40:40.658Z,99.90
2018-09-29T20:43:08.894Z,99.90
2018-09-29T20:45:37.131Z,99.90
2018-09-29T20:48:05.519Z,99.90
2018-09-29T20:50:33.760Z,99.90
2018-09-29T20:53:02.010Z,99.90
2018-09-29T20:55:30.229Z,99.90
2018-09-29T20:57:58.478Z,99.90
2018-09-29T21:00:26.721Z,99.90
2018-09-29T21:02:54.937Z,99.90
2018-09-29T21:05:23.238Z,99.90
2018-09-29T21:07:51.438Z,99.90
2018-09-29T21:10:20.340Z,99.90
2018-09-29T21:12:48.610Z,99.90
2018-09-29T21:15:16.828Z,99.90
2018-09-29T21:17:45.328Z,99.90
2018-09-29T21:20:13.695Z,99.90
2018-09-29T21:22:42.515Z,99.90
2018-09-29T21:25:10.766Z,99.90
2018-09-29T21:27:39.201Z,99.90
2018-09-29T21:30:07.484Z,99.90
2018-09-29T21:32:35.734Z,99.90
2018-09-29T21:35:04.003Z,99.90
2018-09-29T21:37:32.258Z,99.90
2018-09-29T21:40:00.674Z,99.90
2018-09-29T21:42:28.975Z,99.90
2018-09-29T21:44:57.134Z,99.90
2018-09-29T21:47:25.370Z,99.90
2018-09-29T21:49:53.582Z,99.90
2018-09-29T21:52:21.879Z,99.90
2018-09-29T21:54:50.055Z,99.90
2018-09-29T21:57:18.292Z,99.90
2018-09-29T21:59:46.537Z,99.90
2018-09-29T22:02:14.733Z,99.90
2018-09-29T22:04:42.957Z,99.90
2018-09-29T22:07:11.154Z,99.90
2018-09-29T22:09:39.421Z,99.90
2018-09-29T22:12:07.772Z,99.90
2018-09-29T22:14:36.005Z,99.90
2018-09-29T22:17:04.238Z,99.90
2018-09-29T22:19:32.524Z,99.90
2018-09-29T22:22:00.823Z,99.90
2018-09-29T22:24:29.061Z,99.90
2018-09-29T22:26:57.283Z,99.90
2018-09-29T22:29:25.506Z,99.90
2018-09-29T22:31:53.751Z,99.90
2018-09-29T22:34:21.967Z,99.90
2018-09-29T22:36:50.215Z,99.90
2018-09-29T22:39:18.430Z,99.90
2018-09-29T22:41:46.678Z,99.90
2018-09-29T22:44:14.925Z,99.90
2018-09-29T22:46:43.131Z,99.90
2018-09-29T22:49:11.366Z,99.90
2018-09-29T22:51:39.673Z,99.90
2018-09-29T22:54:07.940Z,99.90
2018-09-29T22:56:36.223Z,99.90
2018-09-29T22:59:04.475Z,99.90
2018-09-29T23:01:32.694Z,99.90
2018-09-29T23:04:00.933Z,99.90
2018-09-29T23:06:29.210Z,99.90
2018-09-29T23:08:57.442Z,99.90
2018-09-29T23:11:25.646Z,99.90
2018-09-29T23:13:53.997Z,99.90
2018-09-29T23:16:22.213Z,99.90
2018-09-29T23:18:50.441Z,99.90
2018-09-29T23:21:18.727Z,99.90
2018-09-29T23:23:47.160Z,99.90
2018-09-29T23:26:15.500Z,99.90
2018-09-29T23:28:43.853Z,99.90
2018-09-29T23:31:12.105Z,99.90
2018-09-29T23:33:40.424Z,99.90
2018-09-29T23:36:08.683Z,99.90
2018-09-29T23:38:36.901Z,99.90
2018-09-29T23:41:05.102Z,99.90
2018-09-29T23:43:33.371Z,99.90
2018-09-29T23:46:01.616Z,99.90
2018-09-29T23:48:29.864Z,99.90
2018-09-29T23:50:58.127Z,99.90
2018-09-29T23:53:26.350Z,99.90
2018-09-29T23:55:54.649Z,99.90
2018-09-29T23:58:22.918Z,99.90
